KLM916 EGPD-EHAM
Flight info
| Callsign | KLM916 |
|---|---|
| Flight time | N/A |
| Altitude | 19000 |
| Route | ADN P600 LESNI/N0445F250 P600 BUDON/N0462F390 DCT TOPPA |
| Aircraft | E190/M-SDE3GILORVW/S |
Departure
| Time | 2026-05-06 12:55 |
|---|---|
| Airport | Aberdeen International Airport (EGPD) |
Arrival
| Time | N/A |
|---|---|
| Airport | Amsterdam Airport Schiphol (EHAM) |
| Time | Latitude | Longitude | Altitude | Speed | Heading |
|---|---|---|---|---|---|
| 2026-05-06 12:38 | 57.20031 | -2.20218 | 213 ft | 0 kts | 248° |
| 2026-05-06 12:48 | 57.20033 | -2.20206 | 213 ft | 2 kts | 248° |
| 2026-05-06 12:48 | 57.20039 | -2.20180 | 213 ft | 2 kts | 248° |
| 2026-05-06 12:48 | 57.20045 | -2.20154 | 212 ft | 2 kts | 248° |
| 2026-05-06 12:48 | 57.20050 | -2.20131 | 212 ft | 1 kts | 247° |
| 2026-05-06 12:49 | 57.20050 | -2.20115 | 212 ft | 1 kts | 307° |
| 2026-05-06 12:49 | 57.20046 | -2.20108 | 212 ft | 0 kts | 346° |
| 2026-05-06 12:49 | 57.20040 | -2.20105 | 212 ft | 0 kts | 338° |
| 2026-05-06 12:51 | 57.20049 | -2.20111 | 212 ft | 3 kts | 338° |
| 2026-05-06 12:51 | 57.20089 | -2.20143 | 212 ft | 9 kts | 338° |
| 2026-05-06 12:51 | 57.20164 | -2.20198 | 212 ft | 14 kts | 339° |
| 2026-05-06 12:51 | 57.20270 | -2.20275 | 214 ft | 18 kts | 339° |
| 2026-05-06 12:52 | 57.20399 | -2.20370 | 215 ft | 18 kts | 339° |
| 2026-05-06 12:52 | 57.20486 | -2.20355 | 214 ft | 6 kts | 30° |
| 2026-05-06 12:52 | 57.20535 | -2.20364 | 214 ft | 8 kts | 342° |
| 2026-05-06 12:52 | 57.20608 | -2.20415 | 215 ft | 15 kts | 338° |
| 2026-05-06 12:53 | 57.20728 | -2.20503 | 217 ft | 22 kts | 338° |
| 2026-05-06 12:53 | 57.20894 | -2.20624 | 219 ft | 24 kts | 339° |
| 2026-05-06 12:53 | 57.20979 | -2.20668 | 219 ft | 3 kts | 20° |
| 2026-05-06 12:53 | 57.20986 | -2.20659 | 219 ft | 0 kts | 45° |
| 2026-05-06 12:54 | 57.20994 | -2.20641 | 219 ft | 2 kts | 60° |
| 2026-05-06 12:54 | 57.21008 | -2.20595 | 218 ft | 5 kts | 62° |
| 2026-05-06 12:54 | 57.21026 | -2.20522 | 217 ft | 7 kts | 68° |
| 2026-05-06 12:54 | 57.21036 | -2.20414 | 216 ft | 9 kts | 122° |
| 2026-05-06 12:55 | 57.20972 | -2.20351 | 214 ft | 22 kts | 158° |
| 2026-05-06 12:55 | 57.20511 | -2.20012 | 209 ft | 115 kts | 157° |
| 2026-05-06 12:55 | 57.19553 | -2.19318 | 368 ft | 171 kts | 159° |
| 2026-05-06 12:55 | 57.18406 | -2.18423 | 1173 ft | 190 kts | 159° |
| 2026-05-06 12:56 | 57.17227 | -2.17256 | 2129 ft | 205 kts | 141° |
| 2026-05-06 12:56 | 57.16278 | -2.15274 | 3046 ft | 199 kts | 130° |
| 2026-05-06 12:56 | 57.15506 | -2.13466 | 3844 ft | 183 kts | 130° |
| 2026-05-06 12:56 | 57.14710 | -2.11612 | 4796 ft | 193 kts | 130° |
| 2026-05-06 12:57 | 57.13965 | -2.09544 | 5697 ft | 204 kts | 107° |
| 2026-05-06 12:57 | 57.14061 | -2.06982 | 6635 ft | 211 kts | 62° |
| 2026-05-06 12:57 | 57.15112 | -2.04927 | 6928 ft | 244 kts | 27° |
| 2026-05-06 12:57 | 57.16723 | -2.03437 | 7360 ft | 274 kts | 24° |
| 2026-05-06 12:58 | 57.18454 | -2.01869 | 8227 ft | 287 kts | 24° |
| 2026-05-06 12:58 | 57.20240 | -2.00247 | 9298 ft | 289 kts | 24° |
| 2026-05-06 12:58 | 57.22009 | -1.98637 | 10441 ft | 289 kts | 23° |
| 2026-05-06 12:58 | 57.23819 | -1.96989 | 11387 ft | 296 kts | 23° |
| 2026-05-06 12:59 | 57.25696 | -1.95280 | 12115 ft | 310 kts | 23° |
| 2026-05-06 12:59 | 57.27652 | -1.93496 | 12796 ft | 323 kts | 23° |
| 2026-05-06 12:59 | 57.29685 | -1.91636 | 13635 ft | 332 kts | 23° |
| 2026-05-06 12:59 | 57.31575 | -1.89261 | 14515 ft | 342 kts | 39° |
| 2026-05-06 13:00 | 57.33181 | -1.86026 | 15444 ft | 348 kts | 48° |
| 2026-05-06 13:00 | 57.34643 | -1.82443 | 16336 ft | 354 kts | 52° |
| 2026-05-06 13:00 | 57.36041 | -1.78723 | 17151 ft | 360 kts | 53° |
| 2026-05-06 13:00 | 57.37409 | -1.74963 | 17938 ft | 366 kts | 53° |
| 2026-05-06 13:01 | 57.38786 | -1.71124 | 18726 ft | 371 kts | 53° |
| 2026-05-06 13:01 | 57.40213 | -1.67124 | 19521 ft | 376 kts | 53° |
| 2026-05-06 13:01 | 57.41645 | -1.63094 | 20325 ft | 381 kts | 53° |
| 2026-05-06 13:01 | 57.43073 | -1.59067 | 21120 ft | 385 kts | 53° |
| 2026-05-06 13:02 | 57.44533 | -1.54944 | 21899 ft | 389 kts | 53° |
| 2026-05-06 13:02 | 57.46000 | -1.50790 | 22638 ft | 394 kts | 53° |
| 2026-05-06 13:02 | 57.47501 | -1.46535 | 23368 ft | 398 kts | 53° |
| 2026-05-06 13:02 | 57.49017 | -1.42230 | 24081 ft | 403 kts | 53° |
| 2026-05-06 13:03 | 57.50523 | -1.37922 | 24735 ft | 409 kts | 53° |
| 2026-05-06 13:03 | 57.52038 | -1.33613 | 25359 ft | 414 kts | 53° |
| 2026-05-06 13:03 | 57.53548 | -1.29299 | 25996 ft | 418 kts | 54° |
| 2026-05-06 13:03 | 57.54873 | -1.24567 | 26623 ft | 426 kts | 64° |
| 2026-05-06 13:04 | 57.55998 | -1.19635 | 27228 ft | 430 kts | 64° |
| 2026-05-06 13:04 | 57.57154 | -1.14538 | 27834 ft | 435 kts | 64° |
| 2026-05-06 13:04 | 57.58327 | -1.09356 | 28435 ft | 439 kts | 64° |
| 2026-05-06 13:04 | 57.59508 | -1.04124 | 29040 ft | 443 kts | 64° |
| 2026-05-06 13:05 | 57.60698 | -0.98841 | 29626 ft | 447 kts | 64° |
| 2026-05-06 13:05 | 57.61852 | -0.93708 | 30183 ft | 451 kts | 64° |
| 2026-05-06 13:05 | 57.62997 | -0.88599 | 30701 ft | 455 kts | 64° |
| 2026-05-06 13:05 | 57.64127 | -0.83442 | 31226 ft | 459 kts | 68° |
| 2026-05-06 13:06 | 57.64942 | -0.77983 | 31700 ft | 466 kts | 77° |
| 2026-05-06 13:06 | 57.65301 | -0.72141 | 32182 ft | 472 kts | 88° |
| 2026-05-06 13:06 | 57.65156 | -0.66216 | 32748 ft | 474 kts | 97° |
| 2026-05-06 13:06 | 57.64537 | -0.60577 | 33369 ft | 472 kts | 107° |
| 2026-05-06 13:07 | 57.63393 | -0.54918 | 33971 ft | 468 kts | 118° |
| 2026-05-06 13:07 | 57.61869 | -0.49738 | 34518 ft | 464 kts | 124° |
| 2026-05-06 13:07 | 57.59997 | -0.44968 | 35025 ft | 458 kts | 135° |
| 2026-05-06 13:07 | 57.57735 | -0.40851 | 35386 ft | 452 kts | 145° |
| 2026-05-06 13:08 | 57.55200 | -0.37588 | 35762 ft | 444 kts | 155° |
| 2026-05-06 13:08 | 57.52434 | -0.35196 | 36100 ft | 436 kts | 165° |
| 2026-05-06 13:08 | 57.49636 | -0.33373 | 36415 ft | 437 kts | 162° |
| 2026-05-06 13:08 | 57.46923 | -0.30889 | 36714 ft | 439 kts | 156° |
| 2026-05-06 13:09 | 57.44270 | -0.28163 | 36989 ft | 439 kts | 155° |
| 2026-05-06 13:09 | 57.41608 | -0.25349 | 37253 ft | 440 kts | 155° |
| 2026-05-06 13:09 | 57.38968 | -0.22539 | 37495 ft | 441 kts | 155° |
| 2026-05-06 13:09 | 57.36358 | -0.19757 | 37725 ft | 442 kts | 154° |
| 2026-05-06 13:10 | 57.33728 | -0.16957 | 37956 ft | 442 kts | 154° |
| 2026-05-06 13:10 | 57.31056 | -0.14116 | 38198 ft | 442 kts | 154° |
| 2026-05-06 13:10 | 57.28429 | -0.11328 | 38438 ft | 442 kts | 154° |
| 2026-05-06 13:10 | 57.25764 | -0.08504 | 38716 ft | 441 kts | 154° |
| 2026-05-06 13:11 | 57.23124 | -0.05711 | 38978 ft | 441 kts | 154° |
| 2026-05-06 13:11 | 57.17770 | -0.00064 | 39073 ft | 453 kts | 154° |
| 2026-05-06 13:12 | 57.12239 | 0.05753 | 39081 ft | 465 kts | 154° |
| 2026-05-06 13:12 | 57.06600 | 0.11663 | 39080 ft | 468 kts | 154° |
| 2026-05-06 13:13 | 57.00993 | 0.17519 | 39065 ft | 466 kts | 154° |
| 2026-05-06 13:13 | 56.95388 | 0.23350 | 39074 ft | 466 kts | 154° |
| 2026-05-06 13:14 | 56.89760 | 0.29186 | 39077 ft | 467 kts | 154° |
| 2026-05-06 13:14 | 56.84134 | 0.35000 | 39075 ft | 467 kts | 154° |
| 2026-05-06 13:15 | 56.78526 | 0.40774 | 39074 ft | 467 kts | 154° |
| 2026-05-06 13:15 | 56.72865 | 0.46584 | 39076 ft | 466 kts | 154° |
| 2026-05-06 13:16 | 56.67262 | 0.52313 | 39081 ft | 466 kts | 154° |
| 2026-05-06 13:16 | 56.61619 | 0.58063 | 39075 ft | 465 kts | 154° |
| 2026-05-06 13:17 | 56.56031 | 0.63738 | 39081 ft | 465 kts | 153° |
| 2026-05-06 13:17 | 56.50404 | 0.69434 | 39062 ft | 464 kts | 154° |
| 2026-05-06 13:18 | 56.44802 | 0.75084 | 39074 ft | 465 kts | 154° |
| 2026-05-06 13:18 | 56.39185 | 0.80730 | 39069 ft | 464 kts | 154° |
| 2026-05-06 13:19 | 56.33537 | 0.86388 | 39079 ft | 465 kts | 154° |
| 2026-05-06 13:19 | 56.27902 | 0.92013 | 39074 ft | 465 kts | 154° |
| 2026-05-06 13:20 | 56.22264 | 0.97623 | 39071 ft | 463 kts | 154° |
| 2026-05-06 13:20 | 56.16653 | 1.03187 | 39071 ft | 464 kts | 154° |
| 2026-05-06 13:21 | 56.11028 | 1.08746 | 39076 ft | 463 kts | 154° |
| 2026-05-06 13:21 | 56.05436 | 1.14254 | 39070 ft | 462 kts | 154° |
| 2026-05-06 13:22 | 55.99815 | 1.19772 | 39068 ft | 463 kts | 154° |
| 2026-05-06 13:22 | 55.94214 | 1.25253 | 39065 ft | 462 kts | 154° |
| 2026-05-06 13:23 | 55.88602 | 1.30724 | 39071 ft | 462 kts | 154° |
| 2026-05-06 13:23 | 55.82996 | 1.36173 | 39077 ft | 462 kts | 154° |
| 2026-05-06 13:24 | 55.77357 | 1.41635 | 39068 ft | 462 kts | 154° |
| 2026-05-06 13:24 | 55.71762 | 1.47037 | 39071 ft | 462 kts | 154° |
| 2026-05-06 13:25 | 55.66122 | 1.52465 | 39068 ft | 461 kts | 154° |
| 2026-05-06 13:25 | 55.60547 | 1.57813 | 39062 ft | 461 kts | 154° |
| 2026-05-06 13:26 | 55.54904 | 1.63207 | 39062 ft | 460 kts | 154° |
| 2026-05-06 13:26 | 55.49302 | 1.68545 | 39061 ft | 460 kts | 155° |
| 2026-05-06 13:27 | 55.43715 | 1.73852 | 39059 ft | 459 kts | 155° |
| 2026-05-06 13:27 | 55.38134 | 1.79135 | 39055 ft | 459 kts | 155° |
| 2026-05-06 13:28 | 55.32537 | 1.84417 | 39049 ft | 458 kts | 155° |
| 2026-05-06 13:28 | 55.26939 | 1.89682 | 39059 ft | 458 kts | 155° |
| 2026-05-06 13:29 | 55.21322 | 1.94949 | 39056 ft | 459 kts | 155° |
| 2026-05-06 13:29 | 55.15702 | 2.00201 | 39057 ft | 459 kts | 155° |
| 2026-05-06 13:30 | 55.10129 | 2.05393 | 39051 ft | 459 kts | 155° |
| 2026-05-06 13:30 | 55.04517 | 2.10604 | 39045 ft | 459 kts | 155° |
| 2026-05-06 13:31 | 54.98886 | 2.15816 | 39047 ft | 458 kts | 155° |
| 2026-05-06 13:31 | 54.93300 | 2.20970 | 39042 ft | 457 kts | 155° |
| 2026-05-06 13:32 | 54.87710 | 2.26112 | 39037 ft | 457 kts | 155° |
| 2026-05-06 13:32 | 54.82114 | 2.31243 | 39042 ft | 457 kts | 155° |
| 2026-05-06 13:33 | 54.76495 | 2.36378 | 39033 ft | 458 kts | 155° |
| 2026-05-06 13:33 | 54.70878 | 2.41496 | 39032 ft | 458 kts | 155° |
| 2026-05-06 13:34 | 54.65245 | 2.46612 | 39032 ft | 458 kts | 155° |
| 2026-05-06 13:34 | 54.59645 | 2.51682 | 39029 ft | 458 kts | 155° |
| 2026-05-06 13:35 | 54.54021 | 2.56758 | 39030 ft | 457 kts | 155° |
| 2026-05-06 13:35 | 54.48438 | 2.61782 | 39027 ft | 457 kts | 155° |
| 2026-05-06 13:36 | 54.42828 | 2.66813 | 39020 ft | 457 kts | 155° |
| 2026-05-06 13:36 | 54.37199 | 2.71847 | 39016 ft | 457 kts | 155° |
| 2026-05-06 13:37 | 54.31575 | 2.76859 | 39016 ft | 457 kts | 155° |
| 2026-05-06 13:37 | 54.26037 | 2.81782 | 38999 ft | 442 kts | 156° |
| 2026-05-06 13:38 | 54.20641 | 2.86561 | 39001 ft | 438 kts | 155° |
| 2026-05-06 13:38 | 54.17932 | 2.88955 | 38861 ft | 442 kts | 155° |
| 2026-05-06 13:38 | 54.15215 | 2.91353 | 38415 ft | 444 kts | 155° |
| 2026-05-06 13:38 | 54.12485 | 2.93761 | 37948 ft | 441 kts | 155° |
| 2026-05-06 13:39 | 54.09824 | 2.96102 | 37471 ft | 437 kts | 155° |
| 2026-05-06 13:39 | 54.07137 | 2.98463 | 36981 ft | 433 kts | 155° |
| 2026-05-06 13:39 | 54.04493 | 3.00784 | 36507 ft | 429 kts | 155° |
| 2026-05-06 13:39 | 54.01840 | 3.03108 | 36031 ft | 428 kts | 155° |
| 2026-05-06 13:40 | 53.99240 | 3.05382 | 35565 ft | 430 kts | 155° |
| 2026-05-06 13:40 | 53.96555 | 3.07728 | 35079 ft | 432 kts | 155° |
| 2026-05-06 13:40 | 53.93926 | 3.10022 | 34568 ft | 433 kts | 155° |
| 2026-05-06 13:40 | 53.91276 | 3.12331 | 34074 ft | 432 kts | 155° |
| 2026-05-06 13:41 | 53.88606 | 3.14654 | 33595 ft | 432 kts | 155° |
| 2026-05-06 13:41 | 53.85949 | 3.16962 | 33126 ft | 434 kts | 155° |
| 2026-05-06 13:41 | 53.83284 | 3.19273 | 32644 ft | 435 kts | 155° |
| 2026-05-06 13:41 | 53.80597 | 3.21601 | 32162 ft | 435 kts | 155° |
| 2026-05-06 13:42 | 53.77903 | 3.23932 | 31676 ft | 435 kts | 155° |
| 2026-05-06 13:42 | 53.75231 | 3.26239 | 31199 ft | 436 kts | 155° |
| 2026-05-06 13:42 | 53.72549 | 3.28552 | 30702 ft | 433 kts | 155° |
| 2026-05-06 13:42 | 53.69891 | 3.30841 | 30219 ft | 429 kts | 155° |
| 2026-05-06 13:43 | 53.67279 | 3.33087 | 29748 ft | 426 kts | 155° |
| 2026-05-06 13:43 | 53.64642 | 3.35352 | 29277 ft | 424 kts | 155° |
| 2026-05-06 13:43 | 53.62026 | 3.37595 | 28814 ft | 421 kts | 155° |
| 2026-05-06 13:43 | 53.59449 | 3.39802 | 28351 ft | 418 kts | 155° |
| 2026-05-06 13:44 | 53.56890 | 3.41991 | 27897 ft | 416 kts | 155° |
| 2026-05-06 13:44 | 53.54346 | 3.44163 | 27441 ft | 413 kts | 155° |
| 2026-05-06 13:44 | 53.51783 | 3.46350 | 26979 ft | 410 kts | 155° |
| 2026-05-06 13:44 | 53.49284 | 3.48477 | 26529 ft | 408 kts | 155° |
| 2026-05-06 13:45 | 53.46757 | 3.50627 | 26074 ft | 406 kts | 155° |
| 2026-05-06 13:45 | 53.41769 | 3.54862 | 25195 ft | 401 kts | 156° |
| 2026-05-06 13:45 | 53.39223 | 3.56303 | 24857 ft | 391 kts | 170° |
| 2026-05-06 13:46 | 53.36584 | 3.57174 | 24705 ft | 393 kts | 172° |
| 2026-05-06 13:46 | 53.33899 | 3.57990 | 24281 ft | 392 kts | 172° |
| 2026-05-06 13:46 | 53.31233 | 3.58778 | 23851 ft | 389 kts | 172° |
| 2026-05-06 13:46 | 53.28558 | 3.59561 | 23423 ft | 387 kts | 172° |
| 2026-05-06 13:47 | 53.25957 | 3.60319 | 23003 ft | 385 kts | 172° |
| 2026-05-06 13:47 | 53.23325 | 3.61084 | 22578 ft | 383 kts | 172° |
| 2026-05-06 13:47 | 53.20718 | 3.61842 | 22155 ft | 381 kts | 172° |
| 2026-05-06 13:47 | 53.18118 | 3.62596 | 21737 ft | 379 kts | 172° |
| 2026-05-06 13:48 | 53.15562 | 3.63336 | 21323 ft | 377 kts | 172° |
| 2026-05-06 13:48 | 53.12983 | 3.64082 | 20914 ft | 375 kts | 172° |
| 2026-05-06 13:48 | 53.10451 | 3.64814 | 20500 ft | 373 kts | 172° |
| 2026-05-06 13:48 | 53.07906 | 3.65548 | 20083 ft | 371 kts | 173° |
| 2026-05-06 13:49 | 53.05355 | 3.66284 | 19671 ft | 369 kts | 172° |
| 2026-05-06 13:49 | 53.02840 | 3.67008 | 19257 ft | 368 kts | 172° |
| 2026-05-06 13:49 | 53.00322 | 3.67732 | 18852 ft | 366 kts | 172° |
| 2026-05-06 13:49 | 52.97840 | 3.68445 | 18450 ft | 364 kts | 172° |
| 2026-05-06 13:50 | 52.95374 | 3.69152 | 18052 ft | 362 kts | 172° |
| 2026-05-06 13:50 | 52.92912 | 3.69858 | 17653 ft | 360 kts | 172° |
| 2026-05-06 13:50 | 52.90430 | 3.70568 | 17249 ft | 359 kts | 172° |
| 2026-05-06 13:50 | 52.88050 | 3.71249 | 16862 ft | 358 kts | 172° |
| 2026-05-06 13:51 | 52.85580 | 3.71954 | 16459 ft | 357 kts | 172° |
| 2026-05-06 13:51 | 52.83241 | 3.72622 | 16075 ft | 355 kts | 172° |
| 2026-05-06 13:51 | 52.80814 | 3.73313 | 15680 ft | 353 kts | 172° |
| 2026-05-06 13:51 | 52.78401 | 3.74000 | 15292 ft | 351 kts | 172° |
| 2026-05-06 13:52 | 52.76057 | 3.74657 | 14908 ft | 349 kts | 173° |
| 2026-05-06 13:52 | 52.73644 | 3.75057 | 14521 ft | 347 kts | 176° |
| 2026-05-06 13:52 | 52.71271 | 3.75426 | 14143 ft | 346 kts | 176° |
| 2026-05-06 13:52 | 52.68875 | 3.75802 | 13761 ft | 344 kts | 176° |
| 2026-05-06 13:53 | 52.66505 | 3.76174 | 13384 ft | 343 kts | 176° |
| 2026-05-06 13:53 | 52.64161 | 3.76543 | 13010 ft | 341 kts | 176° |
| 2026-05-06 13:53 | 52.61792 | 3.76916 | 12630 ft | 339 kts | 175° |
| 2026-05-06 13:53 | 52.59474 | 3.77390 | 12249 ft | 338 kts | 165° |
| 2026-05-06 13:54 | 52.57447 | 3.79193 | 11937 ft | 337 kts | 138° |
| 2026-05-06 13:54 | 52.56123 | 3.82187 | 11450 ft | 328 kts | 113° |
| 2026-05-06 13:54 | 52.55264 | 3.85594 | 11070 ft | 317 kts | 111° |
| 2026-05-06 13:54 | 52.54457 | 3.88888 | 10708 ft | 307 kts | 111° |
| 2026-05-06 13:55 | 52.53690 | 3.92040 | 10378 ft | 297 kts | 111° |
| 2026-05-06 13:55 | 52.52934 | 3.95151 | 10033 ft | 289 kts | 110° |
| 2026-05-06 13:55 | 52.52197 | 3.98183 | 9930 ft | 285 kts | 110° |
| 2026-05-06 13:55 | 52.51469 | 4.01176 | 9936 ft | 288 kts | 110° |
| 2026-05-06 13:56 | 52.50726 | 4.04232 | 9921 ft | 290 kts | 110° |
| 2026-05-06 13:56 | 52.49980 | 4.07291 | 9921 ft | 291 kts | 110° |
| 2026-05-06 13:56 | 52.49236 | 4.10338 | 9926 ft | 291 kts | 110° |
| 2026-05-06 13:56 | 52.48490 | 4.13391 | 9905 ft | 290 kts | 110° |
| 2026-05-06 13:57 | 52.47742 | 4.16445 | 9912 ft | 290 kts | 110° |
| 2026-05-06 13:57 | 52.46991 | 4.19512 | 9911 ft | 290 kts | 110° |
| 2026-05-06 13:57 | 52.46243 | 4.22554 | 9899 ft | 290 kts | 111° |